createdAt,value
2018-12-10T00:00:26.012Z,91.967773
2018-12-10T00:03:53.830Z,92.755127
2018-12-10T00:07:21.701Z,92.712402
2018-12-10T00:10:49.574Z,92.608643
2018-12-10T00:14:17.543Z,92.193604
2018-12-10T00:17:45.403Z,91.363525
2018-12-10T00:21:13.274Z,90.948486
2018-12-10T00:24:41.145Z,90.289307
2018-12-10T00:28:09.991Z,90.332031
2018-12-10T00:31:37.871Z,90.124512
2018-12-10T00:35:05.748Z,90.435791
2018-12-10T00:38:34.593Z,90.228271
2018-12-10T00:42:03.450Z,89.916992
2018-12-10T00:45:31.307Z,88.671875
2018-12-10T00:48:59.154Z,88.775635
2018-12-10T00:52:26.996Z,88.15918
2018-12-10T00:55:54.844Z,87.884521
2018-12-10T00:59:22.698Z,88.50708
2018-12-10T01:02:50.537Z,87.884521
2018-12-10T01:06:18.387Z,87.573242
2018-12-10T01:09:46.234Z,86.956787
2018-12-10T01:13:14.071Z,87.927246
2018-12-10T01:16:42.030Z,87.304688
2018-12-10T01:20:09.766Z,86.169434
2018-12-10T01:23:37.617Z,86.065674
2018-12-10T01:27:05.451Z,86.169434
2018-12-10T01:30:33.301Z,86.37085
2018-12-10T01:34:01.152Z,86.413574
2018-12-10T01:37:28.987Z,85.791016
2018-12-10T01:40:56.836Z,86.309814
2018-12-10T01:44:24.695Z,86.724854
2018-12-10T01:47:53.089Z,86.517334
2018-12-10T01:51:20.942Z,85.687256
2018-12-10T01:54:48.785Z,86.102295
2018-12-10T01:58:16.620Z,85.998535
2018-12-10T02:01:44.477Z,84.960938
2018-12-10T02:05:12.330Z,85.375977
2018-12-10T02:08:40.158Z,85.028076
2018-12-10T02:12:08.014Z,85.858154
2018-12-10T02:15:36.865Z,85.235596
2018-12-10T02:19:04.706Z,85.028076
2018-12-10T02:22:32.558Z,85.028076
2018-12-10T02:26:01.049Z,84.924316
2018-12-10T02:29:29.164Z,85.028076
2018-12-10T02:32:57.021Z,85.028076
2018-12-10T02:36:24.871Z,84.820557
2018-12-10T02:39:53.715Z,84.716797
2018-12-10T02:43:21.553Z,84.613037
2018-12-10T02:46:49.406Z,84.405518
2018-12-10T02:50:17.256Z,85.028076
2018-12-10T02:53:45.090Z,84.985352
2018-12-10T02:57:12.940Z,84.368896
2018-12-10T03:00:41.807Z,84.265137
2018-12-10T03:04:09.610Z,84.161377
2018-12-10T03:07:37.460Z,83.709717
2018-12-10T03:11:05.311Z,84.429932
2018-12-10T03:14:33.143Z,84.118652
2018-12-10T03:18:00.990Z,84.533691
2018-12-10T03:21:28.835Z,84.533691
2018-12-10T03:24:56.681Z,84.533691
2018-12-10T03:28:24.516Z,84.533691
2018-12-10T03:31:53.359Z,84.326172
2018-12-10T03:35:21.207Z,84.326172
2018-12-10T03:38:49.042Z,84.533691
2018-12-10T03:42:16.976Z,84.222412
2018-12-10T03:45:44.827Z,84.014893
2018-12-10T03:49:14.656Z,83.911133
2018-12-10T03:52:42.508Z,84.326172
2018-12-10T03:56:10.355Z,83.398438
2018-12-10T03:59:38.198Z,82.775879
2018-12-10T04:03:06.058Z,79.772949
2018-12-10T04:06:33.905Z,80.151367
2018-12-10T04:10:01.759Z,82.049561
2018-12-10T04:13:29.601Z,82.879639
2018-12-10T04:16:57.455Z,82.4646
2018-12-10T04:20:25.303Z,82.36084
2018-12-10T04:23:53.138Z,82.501221
2018-12-10T04:27:20.989Z,81.640625
2018-12-10T04:30:48.841Z,81.738281
2018-12-10T04:34:16.674Z,80.914307
2018-12-10T04:37:44.516Z,80.499268
2018-12-10T04:41:12.378Z,81.018066
2018-12-10T04:44:40.214Z,80.462646
2018-12-10T04:48:08.061Z,80.877686
2018-12-10T04:51:35.982Z,80.047607
2018-12-10T04:55:03.816Z,80.047607
2018-12-10T04:58:31.782Z,79.840088
2018-12-10T05:01:59.631Z,80.151367
2018-12-10T05:05:27.482Z,80.047607
2018-12-10T05:08:55.542Z,80.084229
2018-12-10T05:12:23.399Z,79.736328
2018-12-10T05:15:52.238Z,79.632568
2018-12-10T05:19:20.075Z,80.255127
2018-12-10T05:22:47.922Z,80.395508
2018-12-10T05:26:15.781Z,80.810547
2018-12-10T05:29:43.642Z,80.187988
2018-12-10T05:33:11.539Z,80.603027
2018-12-10T05:36:39.390Z,80.603027
2018-12-10T05:40:07.354Z,80.914307
2018-12-10T05:43:36.188Z,81.329346
2018-12-10T05:47:04.041Z,80.499268
2018-12-10T05:50:31.892Z,80.706787
2018-12-10T05:53:59.729Z,80.743408
2018-12-10T05:57:28.566Z,80.950928
2018-12-10T06:00:56.418Z,81.329346
2018-12-10T06:04:24.251Z,81.677246
2018-12-10T06:07:52.103Z,81.842041
2018-12-10T06:11:19.947Z,81.842041
2018-12-10T06:14:47.784Z,81.433105
2018-12-10T06:18:15.637Z,81.018066
2018-12-10T06:21:43.495Z,81.329346
2018-12-10T06:25:11.330Z,80.395508
2018-12-10T06:28:39.182Z,80.706787
2018-12-10T06:32:09.018Z,81.225586
2018-12-10T06:35:36.867Z,80.706787
2018-12-10T06:39:04.706Z,81.121826
2018-12-10T06:42:32.555Z,81.329346
2018-12-10T06:46:00.409Z,81.018066
2018-12-10T06:49:28.360Z,80.395508
2018-12-10T06:52:56.191Z,80.291748
2018-12-10T06:56:24.044Z,79.156494
2018-12-10T06:59:51.898Z,78.601074
2018-12-10T07:03:19.729Z,79.223633
2018-12-10T07:06:47.578Z,78.601074
2018-12-10T07:10:15.432Z,78.289795
2018-12-10T07:13:43.266Z,78.393555
2018-12-10T07:17:11.176Z,78.912354
2018-12-10T07:20:38.963Z,78.601074
2018-12-10T07:24:06.794Z,79.016113
2018-12-10T07:27:35.640Z,79.327393
2018-12-10T07:31:03.485Z,78.186035
2018-12-10T07:34:31.345Z,77.770996
2018-12-10T07:38:00.386Z,78.082275
2018-12-10T07:41:28.240Z,77.770996
2018-12-10T07:44:56.094Z,78.393555
2018-12-10T07:48:23.925Z,79.327393
2018-12-10T07:51:52.507Z,79.736328
2018-12-10T07:55:20.359Z,80.255127
2018-12-10T07:58:48.195Z,79.528809
2018-12-10T08:02:16.116Z,79.736328
2018-12-10T08:05:44.892Z,79.943848
2018-12-10T08:09:12.741Z,80.255127
2018-12-10T08:12:40.578Z,80.151367
2018-12-10T08:16:08.430Z,80.047607
2018-12-10T08:19:36.282Z,79.528809
2018-12-10T08:23:05.108Z,79.803467
2018-12-10T08:26:32.960Z,79.595947
2018-12-10T08:30:00.816Z,79.840088
2018-12-10T08:33:28.658Z,79.803467
2018-12-10T08:36:56.513Z,79.803467
2018-12-10T08:40:24.532Z,80.426025
2018-12-10T08:43:53.326Z,80.633545
2018-12-10T08:47:21.182Z,80.529785
2018-12-10T08:50:49.033Z,80.633545
2018-12-10T08:54:16.869Z,80.529785
2018-12-10T08:57:44.723Z,80.737305
2018-12-10T09:01:12.575Z,80.737305
2018-12-10T09:04:40.419Z,79.595947
2018-12-10T09:08:09.277Z,79.699707
2018-12-10T09:11:37.128Z,80.426025
2018-12-10T09:15:04.985Z,79.803467
2018-12-10T09:18:33.817Z,79.595947
2018-12-10T09:22:01.664Z,79.803467
2018-12-10T09:25:30.221Z,79.290771
2018-12-10T09:28:58.057Z,78.979492
2018-12-10T09:32:25.910Z,79.290771
2018-12-10T09:35:53.768Z,79.290771
2018-12-10T09:39:21.604Z,79.595947
2018-12-10T09:42:49.455Z,79.699707
2018-12-10T09:46:17.299Z,79.803467
2018-12-10T09:49:49.099Z,79.492188
2018-12-10T09:53:16.968Z,79.187012
2018-12-10T09:56:44.819Z,78.942871
2018-12-10T10:00:12.675Z,78.942871
2018-12-10T10:03:41.310Z,78.668213
2018-12-10T10:07:09.152Z,79.083252
2018-12-10T10:10:37.718Z,78.839111
2018-12-10T10:14:05.551Z,78.527832
2018-12-10T10:17:33.407Z,78.216553
2018-12-10T10:21:01.262Z,78.216553
2018-12-10T10:24:31.092Z,78.112793
2018-12-10T10:27:58.951Z,78.009033
2018-12-10T10:31:26.806Z,78.283691
2018-12-10T10:34:55.646Z,78.179932
2018-12-10T10:38:23.501Z,78.527832
2018-12-10T10:41:51.340Z,77.600098
2018-12-10T10:45:21.177Z,77.252197
2018-12-10T10:48:53.786Z,75.494385
2018-12-10T10:52:21.637Z,76.324463
2018-12-10T10:55:51.471Z,76.428223
2018-12-10T10:59:20.307Z,75.805664
2018-12-10T11:02:48.160Z,76.013184
2018-12-10T11:06:16.011Z,75.909424
2018-12-10T11:09:43.851Z,76.531982
2018-12-10T11:13:11.702Z,76.428223
2018-12-10T11:16:39.554Z,77.252197
2018-12-10T11:20:07.388Z,77.667236
2018-12-10T11:23:35.240Z,77.874756
2018-12-10T11:27:03.087Z,78.076172
2018-12-10T11:30:30.930Z,78.112793
2018-12-10T11:33:58.769Z,78.076172
2018-12-10T11:37:26.619Z,78.216553
2018-12-10T11:40:54.481Z,78.216553
2018-12-10T11:44:23.314Z,78.387451
2018-12-10T11:47:51.174Z,78.424072
2018-12-10T11:51:19.030Z,77.807617
2018-12-10T11:54:47.957Z,77.703857
2018-12-10T11:58:15.566Z,77.600098
2018-12-10T12:01:43.427Z,77.807617
2018-12-10T12:05:11.258Z,78.320312
2018-12-10T12:08:39.113Z,78.320312
2018-12-10T12:12:07.636Z,76.66626
2018-12-10T12:15:36.467Z,77.703857
2018-12-10T12:19:11.191Z,79.25415
2018-12-10T12:22:36.130Z,79.663086
2018-12-10T12:26:03.990Z,78.424072
2018-12-10T12:29:32.820Z,78.875732
2018-12-10T12:33:01.769Z,78.875732
2018-12-10T12:36:29.627Z,78.979492
2018-12-10T12:39:58.454Z,77.838135
2018-12-10T12:43:26.309Z,77.636719
2018-12-10T12:46:54.167Z,77.941895
2018-12-10T12:50:22.002Z,76.9104
2018-12-10T12:53:50.475Z,77.838135
2018-12-10T12:57:18.430Z,77.740479
2018-12-10T13:00:47.031Z,78.564453
2018-12-10T13:04:14.885Z,77.807617
2018-12-10T13:07:44.707Z,78.839111
2018-12-10T13:11:12.570Z,79.25415
2018-12-10T13:14:40.416Z,79.492188
2018-12-10T13:18:08.272Z,79.290771
2018-12-10T13:21:36.125Z,78.356934
2018-12-10T13:25:03.960Z,78.668213
2018-12-10T13:28:31.814Z,78.460693
2018-12-10T13:32:00.655Z,78.460693
2018-12-10T13:35:28.509Z,78.979492
2018-12-10T13:38:57.342Z,78.979492
2018-12-10T13:42:25.187Z,79.528809
2018-12-10T13:45:54.053Z,79.431152
2018-12-10T13:49:21.868Z,79.394531
2018-12-10T13:52:49.720Z,79.699707
2018-12-10T13:56:19.576Z,79.290771
2018-12-10T13:59:48.906Z,78.979492
2018-12-10T14:03:17.571Z,78.771973
2018-12-10T14:06:46.477Z,78.771973
2018-12-10T14:10:14.531Z,80.426025
2018-12-10T14:13:42.450Z,81.561279
2018-12-10T14:17:12.076Z,82.702637
2018-12-10T14:20:43.176Z,83.319092
2018-12-10T14:24:11.049Z,85.595703
2018-12-10T14:27:40.529Z,86.627197
2018-12-10T14:31:08.445Z,87.249756
2018-12-10T14:34:41.018Z,87.493896
2018-12-10T14:38:08.911Z,86.669922
2018-12-10T14:41:36.770Z,86.877441
2018-12-10T14:45:04.633Z,86.462402
2018-12-10T14:48:33.494Z,85.528564
2018-12-10T14:52:01.355Z,84.60083
2018-12-10T14:55:29.194Z,84.185791
2018-12-10T14:58:57.083Z,83.459473
2018-12-10T15:02:24.953Z,83.605957
2018-12-10T15:05:52.816Z,83.605957
2018-12-10T15:09:20.706Z,82.672119
2018-12-10T15:12:48.548Z,82.672119
2018-12-10T15:16:16.407Z,82.983398
2018-12-10T15:19:44.261Z,83.538818
2018-12-10T15:23:12.110Z,84.057617
2018-12-10T15:26:40.005Z,83.227539
2018-12-10T15:30:07.853Z,82.8125
2018-12-10T15:33:35.718Z,83.056641
2018-12-10T15:37:03.603Z,83.36792
2018-12-10T15:40:31.449Z,83.782959
2018-12-10T15:43:59.311Z,83.990479
2018-12-10T15:47:27.181Z,84.094238
2018-12-10T15:50:55.017Z,83.990479
2018-12-10T15:54:22.878Z,84.338379
2018-12-10T15:57:51.733Z,84.094238
2018-12-10T16:01:19.769Z,83.47168
2018-12-10T16:04:47.627Z,83.929443
2018-12-10T16:08:15.527Z,83.990479
2018-12-10T16:11:43.410Z,84.545898
2018-12-10T16:15:11.240Z,84.960938
2018-12-10T16:18:39.113Z,85.583496
2018-12-10T16:22:06.982Z,86.206055
2018-12-10T16:25:34.821Z,85.791016
2018-12-10T16:29:03.678Z,85.583496
2018-12-10T16:32:31.545Z,85.894775
2018-12-10T16:35:59.398Z,85.791016
2018-12-10T16:39:27.253Z,86.206055
2018-12-10T16:42:55.121Z,86.065674
2018-12-10T16:46:26.309Z,86.169434
2018-12-10T16:49:54.989Z,85.961914
2018-12-10T16:53:23.846Z,86.065674
2018-12-10T16:56:51.745Z,85.858154
2018-12-10T17:00:21.389Z,85.858154
2018-12-10T17:03:49.209Z,85.754395
2018-12-10T17:07:17.067Z,85.71167
2018-12-10T17:10:44.945Z,85.71167
2018-12-10T17:14:12.787Z,85.71167
2018-12-10T17:17:40.698Z,85.71167
2018-12-10T17:21:08.564Z,85.296631
2018-12-10T17:24:37.148Z,85.60791
2018-12-10T17:28:05.016Z,85.50415
2018-12-10T17:31:34.327Z,85.71167
2018-12-10T17:35:02.237Z,85.60791
2018-12-10T17:38:30.199Z,85.71167
2018-12-10T17:41:58.060Z,85.71167
2018-12-10T17:45:25.920Z,85.50415
2018-12-10T17:48:53.797Z,85.192871
2018-12-10T17:52:21.690Z,85.192871
2018-12-10T17:55:49.573Z,85.50415
2018-12-10T17:59:17.446Z,85.50415
2018-12-10T18:02:46.324Z,85.192871
2018-12-10T18:06:14.294Z,85.400391
2018-12-10T18:09:42.169Z,85.81543
2018-12-10T18:13:10.069Z,85.71167
2018-12-10T18:16:37.931Z,85.919189
2018-12-10T18:20:05.999Z,86.334229
2018-12-10T18:23:33.930Z,86.022949
2018-12-10T18:27:01.825Z,86.022949
2018-12-10T18:30:29.704Z,86.065674
2018-12-10T18:33:57.564Z,86.065674
2018-12-10T18:37:25.440Z,86.169434
2018-12-10T18:40:53.308Z,86.578369
2018-12-10T18:44:21.180Z,86.169434
2018-12-10T18:47:49.065Z,86.578369
2018-12-10T18:51:16.995Z,86.37085
2018-12-10T18:54:44.883Z,86.37085
2018-12-10T18:58:12.774Z,86.578369
2018-12-10T19:01:40.704Z,86.474609
2018-12-10T19:05:08.620Z,86.169434
2018-12-10T19:08:40.884Z,86.169434
2018-12-10T19:12:09.791Z,85.546875
2018-12-10T19:15:38.726Z,85.754395
2018-12-10T19:19:07.293Z,85.754395
2018-12-10T19:22:35.160Z,85.650635
2018-12-10T19:26:03.002Z,85.754395
2018-12-10T19:29:31.832Z,85.754395
2018-12-10T19:33:00.727Z,85.961914
2018-12-10T19:36:28.563Z,85.650635
2018-12-10T19:39:56.436Z,85.650635
2018-12-10T19:43:24.288Z,85.650635
2018-12-10T19:46:52.119Z,85.546875
2018-12-10T19:50:19.972Z,85.754395
2018-12-10T19:53:47.920Z,85.546875
2018-12-10T19:57:15.772Z,85.131836
2018-12-10T20:00:43.627Z,85.235596
2018-12-10T20:04:11.480Z,85.235596
2018-12-10T20:07:39.347Z,85.235596
2018-12-10T20:11:07.183Z,85.131836
2018-12-10T20:14:35.037Z,85.131836
2018-12-10T20:18:02.891Z,85.339355
2018-12-10T20:21:31.713Z,85.131836
2018-12-10T20:24:59.570Z,85.546875
2018-12-10T20:28:27.539Z,85.546875
2018-12-10T20:31:55.330Z,85.443115
2018-12-10T20:35:23.211Z,85.546875
2018-12-10T20:38:51.014Z,85.858154
2018-12-10T20:42:18.852Z,85.858154
2018-12-10T20:45:46.700Z,85.546875
2018-12-10T20:49:14.562Z,85.296631
2018-12-10T20:52:42.380Z,84.985352
2018-12-10T20:56:10.234Z,85.089111
2018-12-10T20:59:38.107Z,85.192871
2018-12-10T21:03:05.967Z,85.296631
2018-12-10T21:06:33.800Z,84.783936
2018-12-10T21:10:01.746Z,84.783936
2018-12-10T21:13:29.517Z,84.472656
2018-12-10T21:16:57.361Z,84.161377
2018-12-10T21:20:25.225Z,84.265137
2018-12-10T21:23:53.072Z,83.538818
2018-12-10T21:27:20.911Z,83.538818
2018-12-10T21:30:48.765Z,83.746338
2018-12-10T21:34:16.624Z,83.538818
2018-12-10T21:37:44.468Z,83.746338
2018-12-10T21:41:12.320Z,83.642578
2018-12-10T21:44:41.160Z,83.746338
2018-12-10T21:48:09.009Z,83.746338
2018-12-10T21:51:36.838Z,83.190918
2018-12-10T21:55:04.689Z,83.538818
2018-12-10T21:58:32.531Z,83.435059
2018-12-10T22:02:00.371Z,83.435059
2018-12-10T22:05:28.216Z,83.642578
2018-12-10T22:08:56.067Z,83.642578
2018-12-10T22:12:24.895Z,83.642578
2018-12-10T22:15:52.746Z,83.538818
2018-12-10T22:19:20.597Z,83.642578
2018-12-10T22:22:48.437Z,83.190918
2018-12-10T22:26:16.290Z,83.294678
2018-12-10T22:29:45.130Z,83.087158
2018-12-10T22:33:13.239Z,83.294678
2018-12-10T22:36:41.074Z,82.983398
2018-12-10T22:40:08.927Z,82.983398
2018-12-10T22:43:37.780Z,82.672119
2018-12-10T22:47:05.610Z,83.813477
2018-12-10T22:50:33.464Z,85.26001
2018-12-10T22:54:01.326Z,84.637451
2018-12-10T22:57:30.140Z,83.746338
2018-12-10T23:00:57.982Z,83.398438
2018-12-10T23:04:25.829Z,82.049561
2018-12-10T23:07:53.668Z,81.945801
2018-12-10T23:11:22.514Z,82.36084
2018-12-10T23:14:50.362Z,82.049561
2018-12-10T23:18:18.198Z,82.049561
2018-12-10T23:21:46.042Z,82.36084
2018-12-10T23:25:13.900Z,83.813477
2018-12-10T23:28:42.746Z,85.36377
2018-12-10T23:32:10.584Z,86.187744
2018-12-10T23:35:38.427Z,84.94873
2018-12-10T23:39:06.281Z,83.294678
2018-12-10T23:42:34.116Z,81.188965
2018-12-10T23:46:01.967Z,80.981445
2018-12-10T23:49:29.812Z,82.946777
2018-12-10T23:52:57.652Z,84.741211
2018-12-10T23:56:25.508Z,87.164307
2018-12-10T23:59:53.351Z,88.7146
